Time;durP1;ratioP1;P1;durP2;ratioP2;P2;SDS_P1;SDS_P2;PMS_P1;PMS_P2;Temp;Humidity;BMP_temperature;BMP_pressure;BME280_temperature;BME280_humidity;BME280_pressure;Samples;Min_cycle;Max_cycle;Signal;HPM_P1;HPM_P2
2023/07/02 00:00:27;;;;;;;2.38;1.70;;;;;;;37.30;nan;100021.34;5111929;28;20444;-49
2023/07/02 00:02:54;;;;;;;3.67;1.92;;;;;;;39.62;nan;100026.31;5108338;28;20364;-49
2023/07/02 00:05:21;;;;;;;3.10;1.80;;;;;;;37.92;nan;100028.03;5111835;28;20062;-49
2023/07/02 00:07:47;;;;;;;2.95;2.17;;;;;;;38.25;nan;100030.66;5109583;28;20515;-49
2023/07/02 00:10:14;;;;;;;3.05;1.90;;;;;;;37.06;nan;100027.22;5110948;28;20555;-49
2023/07/02 00:12:40;;;;;;;3.75;2.22;;;;;;;38.36;nan;100032.34;5111891;28;20380;-49
2023/07/02 00:15:07;;;;;;;5.82;2.22;;;;;;;37.91;nan;100042.94;5105722;28;20066;-49
2023/07/02 00:17:34;;;;;;;2.35;1.77;;;;;;;38.90;nan;100031.88;5111837;28;20047;-49
2023/07/02 00:20:08;;;;;;;8.27;2.10;;;;;;;39.43;nan;100036.28;5108629;28;20055;-49
2023/07/02 00:22:36;;;;;;;3.45;2.40;;;;;;;39.53;nan;100039.06;5115596;28;20055;-49
2023/07/02 00:25:02;;;;;;;3.78;2.53;;;;;;;39.23;nan;100039.91;5108208;27;20105;-49
2023/07/02 00:27:29;;;;;;;7.53;3.00;;;;;;;36.94;nan;100034.81;5110874;28;20056;-49
2023/07/02 00:29:56;;;;;;;4.80;2.25;;;;;;;39.25;nan;100044.06;5110755;28;20050;-49
2023/07/02 00:32:22;;;;;;;3.22;2.15;;;;;;;35.69;nan;100043.78;5098823;28;20056;-49
2023/07/02 00:34:49;;;;;;;3.38;2.85;;;;;;;37.53;nan;100041.31;5101682;28;20051;-49
2023/07/02 00:37:15;;;;;;;6.35;3.00;;;;;;;39.48;nan;100039.06;5112261;28;20051;-49
2023/07/02 00:39:42;;;;;;;3.88;3.20;;;;;;;38.52;nan;100036.81;5101698;28;20051;-49
2023/07/02 00:42:11;;;;;;;5.15;3.10;;;;;;;38.00;nan;100051.53;5115172;28;20055;-49
2023/07/02 00:44:40;;;;;;;5.60;3.20;;;;;;;36.18;nan;100054.91;5104869;28;20395;-49
2023/07/02 00:47:12;;;;;;;4.75;3.10;;;;;;;39.24;nan;100047.91;5106196;28;20368;-49
2023/07/02 00:49:40;;;;;;;4.43;3.15;;;;;;;39.49;nan;100054.50;5103222;28;20456;-49
2023/07/02 00:52:06;;;;;;;5.32;3.55;;;;;;;39.03;nan;100051.78;5094830;28;20048;-49
2023/07/02 00:54:33;;;;;;;6.57;3.97;;;;;;;36.06;nan;100051.44;5110748;28;20404;-49
2023/07/02 00:57:03;;;;;;;4.55;3.75;;;;;;;37.08;nan;100057.25;5095762;28;20055;-49
2023/07/02 00:59:35;;;;;;;4.93;3.67;;;;;;;40.10;nan;100058.22;5105011;28;20472;-49
2023/07/02 01:02:02;;;;;;;5.20;3.80;;;;;;;40.47;nan;100056.97;5113763;28;20501;-49
2023/07/02 01:04:29;;;;;;;5.35;3.97;;;;;;;37.91;nan;100066.91;5115006;28;20456;-49
2023/07/02 01:06:59;;;;;;;6.30;4.03;;;;;;;40.10;nan;100059.09;5111534;28;20052;-49
2023/07/02 01:09:26;;;;;;;7.10;4.03;;;;;;;36.54;nan;100063.59;5116142;28;20371;-49
2023/07/02 01:12:03;;;;;;;5.90;4.47;;;;;;;39.15;nan;100054.28;5109383;27;20484;-49
2023/07/02 01:14:43;;;;;;;8.02;4.03;;;;;;;37.33;nan;100056.63;5101912;28;20455;-49
2023/07/02 01:17:10;;;;;;;9.63;4.63;;;;;;;38.66;nan;100050.94;5105371;28;20372;-49
2023/07/02 01:19:52;;;;;;;4.75;3.88;;;;;;;37.75;nan;100058.56;5107258;28;20076;-49
2023/07/02 01:22:20;;;;;;;8.82;4.07;;;;;;;38.93;nan;100055.38;5097719;28;20071;-49
2023/07/02 01:24:48;;;;;;;6.82;4.90;;;;;;;38.90;nan;100058.69;5103218;27;20063;-49
2023/07/02 01:27:16;;;;;;;8.52;4.47;;;;;;;39.06;nan;100056.78;5109552;28;20168;-49
2023/07/02 01:29:44;;;;;;;5.78;4.40;;;;;;;38.92;nan;100062.84;5106831;28;20048;-49
2023/07/02 01:32:11;;;;;;;9.45;4.70;;;;;;;42.42;nan;100055.03;5113868;28;20060;-50
2023/07/02 01:34:37;;;;;;;7.65;5.22;;;;;;;37.58;nan;100055.13;5110676;27;20043;-49
2023/07/02 01:37:04;;;;;;;6.63;4.25;;;;;;;40.48;nan;100058.63;5104092;28;20059;-49
2023/07/02 01:39:31;;;;;;;8.20;4.75;;;;;;;36.87;nan;100067.25;5113689;28;20043;-49
2023/07/02 01:42:14;;;;;;;6.68;4.63;;;;;;;38.15;nan;100065.38;5101437;28;20067;-49
2023/07/02 01:44:41;;;;;;;8.07;4.72;;;;;;;38.45;nan;100061.09;5101235;28;20055;-49
2023/07/02 01:47:08;;;;;;;11.20;5.10;;;;;;;36.54;nan;100064.41;5094119;28;20060;-49
2023/07/02 01:49:36;;;;;;;9.07;4.18;;;;;;;37.43;nan;100070.47;5101961;28;20064;-49
2023/07/02 01:52:03;;;;;;;6.72;4.20;;;;;;;38.44;nan;100064.94;5107438;28;20043;-49
2023/07/02 01:54:34;;;;;;;7.95;4.20;;;;;;;37.97;nan;100068.59;5099984;28;20063;-49
2023/07/02 01:57:01;;;;;;;4.60;4.05;;;;;;;38.90;nan;100056.75;5112992;28;20073;-49
2023/07/02 01:59:27;;;;;;;10.88;4.50;;;;;;;35.78;nan;100054.13;5104046;28;20475;-49
2023/07/02 02:01:54;;;;;;;4.40;3.63;;;;;;;38.53;nan;100060.56;5106842;28;20063;-49
2023/07/02 02:04:20;;;;;;;10.00;4.82;;;;;;;39.00;nan;100063.38;5104713;28;20068;-49
2023/07/02 02:06:47;;;;;;;8.88;4.45;;;;;;;36.82;nan;100061.69;5114234;28;20085;-49
2023/07/02 02:09:14;;;;;;;6.43;4.45;;;;;;;40.95;nan;100053.59;5103545;28;20113;-49
2023/07/02 02:11:44;;;;;;;6.00;4.20;;;;;;;38.53;nan;100066.06;5101236;28;20074;-49
2023/07/02 02:14:11;;;;;;;5.40;3.80;;;;;;;37.77;nan;100075.66;5100126;27;20044;-49
2023/07/02 02:16:37;;;;;;;6.95;4.05;;;;;;;38.15;nan;100081.94;5107700;27;20048;-49
2023/07/02 02:19:05;;;;;;;7.88;4.28;;;;;;;38.00;nan;100073.59;5112059;28;20490;-49
2023/07/02 02:21:31;;;;;;;5.68;3.35;;;;;;;38.14;nan;100069.25;5107873;28;20048;-49
2023/07/02 02:23:58;;;;;;;7.00;4.10;;;;;;;38.66;nan;100074.94;5114539;28;20060;-49
2023/07/02 02:26:27;;;;;;;7.78;4.35;;;;;;;36.70;nan;100068.16;5109522;28;20070;-49
2023/07/02 02:28:54;;;;;;;7.80;4.68;;;;;;;35.33;nan;100076.22;5093587;28;20458;-49
2023/07/02 02:31:20;;;;;;;5.13;4.35;;;;;;;38.48;nan;100073.50;5110290;28;20058;-49
2023/07/02 02:33:47;;;;;;;7.25;3.60;;;;;;;37.72;nan;100072.06;5098916;28;20487;-49
2023/07/02 02:36:13;;;;;;;10.10;4.55;;;;;;;39.61;nan;100068.91;5108711;28;20494;-49
2023/07/02 02:38:40;;;;;;;7.03;4.72;;;;;;;37.94;nan;100082.94;5105797;28;20537;-49
2023/07/02 02:41:08;;;;;;;7.10;4.32;;;;;;;40.18;nan;100077.00;5098908;28;20640;-49
2023/07/02 02:43:35;;;;;;;9.98;4.25;;;;;;;38.22;nan;100089.13;5102234;28;20134;-49
2023/07/02 02:46:01;;;;;;;6.70;4.80;;;;;;;38.08;nan;100086.03;5096618;28;20059;-49
2023/07/02 02:48:28;;;;;;;5.97;4.50;;;;;;;39.70;nan;100088.50;5098220;28;20043;-49
2023/07/02 02:50:54;;;;;;;9.10;4.80;;;;;;;41.56;nan;100091.84;5107686;27;20060;-49
2023/07/02 02:53:21;;;;;;;7.55;4.85;;;;;;;38.06;nan;100094.56;5102565;28;20535;-49
2023/07/02 02:55:47;;;;;;;7.72;4.15;;;;;;;36.79;nan;100089.75;5108660;28;20101;-49
2023/07/02 02:58:14;;;;;;;6.80;4.47;;;;;;;38.30;nan;100094.13;5113199;28;20047;-49
2023/07/02 03:00:44;;;;;;;6.05;4.32;;;;;;;37.89;nan;100091.16;5104329;27;20197;-49
2023/07/02 03:03:13;;;;;;;6.27;4.57;;;;;;;38.36;nan;100098.56;5105751;28;20420;-49
2023/07/02 03:05:40;;;;;;;6.85;4.28;;;;;;;34.88;nan;100097.97;5112381;28;20065;-49
2023/07/02 03:08:06;;;;;;;5.78;4.35;;;;;;;36.65;nan;100092.03;5109036;28;20627;-49
2023/07/02 03:10:33;;;;;;;6.32;3.90;;;;;;;39.11;nan;100087.16;5107964;28;20116;-50
2023/07/02 03:13:00;;;;;;;5.15;4.00;;;;;;;37.23;nan;100089.63;5105075;28;20065;-49
2023/07/02 03:15:26;;;;;;;5.75;4.03;;;;;;;36.10;nan;100096.63;5098432;28;20078;-49
2023/07/02 03:17:53;;;;;;;8.35;3.63;;;;;;;35.91;nan;100088.66;5098914;28;20383;-49
2023/07/02 03:20:20;;;;;;;9.15;4.47;;;;;;;36.28;nan;100093.56;5109002;28;20055;-49
2023/07/02 03:22:46;;;;;;;5.22;4.05;;;;;;;36.35;nan;100099.69;5112655;28;20136;-49
2023/07/02 03:25:13;;;;;;;8.55;4.22;;;;;;;37.49;nan;100098.91;5106590;27;20109;-49
2023/07/02 03:27:39;;;;;;;15.00;4.97;;;;;;;36.40;nan;100095.34;5092308;28;20059;-49
2023/07/02 03:30:06;;;;;;;12.10;5.00;;;;;;;39.60;nan;100094.88;5102293;28;20055;-49
2023/07/02 03:32:33;;;;;;;7.63;4.03;;;;;;;39.77;nan;100083.50;5098715;28;20117;-49
2023/07/02 03:35:01;;;;;;;4.85;3.92;;;;;;;37.42;nan;100096.38;5101335;28;20062;-49
2023/07/02 03:37:27;;;;;;;6.93;3.88;;;;;;;38.34;nan;100078.72;5096198;28;20040;-49
2023/07/02 03:39:54;;;;;;;4.80;3.75;;;;;;;39.03;nan;100088.50;5106014;28;20100;-49
2023/07/02 03:42:21;;;;;;;7.60;3.67;;;;;;;39.32;nan;100103.72;5097729;28;20062;-49
2023/07/02 03:44:47;;;;;;;5.85;3.58;;;;;;;38.71;nan;100097.88;5107858;28;20060;-50
2023/07/02 03:47:15;;;;;;;8.60;3.40;;;;;;;34.09;nan;100106.78;5100921;28;20055;-49
2023/07/02 03:49:42;;;;;;;8.90;3.60;;;;;;;37.01;nan;100100.69;5102677;28;20395;-49
2023/07/02 03:52:09;;;;;;;3.40;2.95;;;;;;;36.90;nan;100105.28;5112256;28;20555;-49
2023/07/02 03:54:38;;;;;;;7.43;3.25;;;;;;;35.96;nan;100096.16;5108418;28;20051;-49
2023/07/02 03:57:04;;;;;;;22.73;5.32;;;;;;;37.03;nan;100104.84;5116691;28;20063;-49
2023/07/02 03:59:31;;;;;;;5.28;3.50;;;;;;;36.76;nan;100115.03;5107000;28;20044;-49
2023/07/02 04:01:58;;;;;;;7.93;3.45;;;;;;;37.25;nan;100112.22;5103494;28;20089;-49
2023/07/02 04:04:24;;;;;;;8.05;3.17;;;;;;;37.57;nan;100114.13;5109341;28;20480;-49
2023/07/02 04:06:51;;;;;;;6.47;3.22;;;;;;;38.78;nan;100125.22;5115996;28;20051;-49
2023/07/02 04:09:18;;;;;;;6.32;4.25;;;;;;;38.84;nan;100124.13;5116045;28;20171;-49
2023/07/02 04:11:45;;;;;;;5.80;3.55;;;;;;;36.70;nan;100117.72;5104628;28;20040;-49
2023/07/02 04:14:11;;;;;;;6.63;3.30;;;;;;;40.44;nan;100126.75;5097766;28;20056;-49
2023/07/02 04:16:38;;;;;;;6.00;3.33;;;;;;;39.36;nan;100126.94;5109249;28;20403;-49
2023/07/02 04:19:05;;;;;;;7.45;3.35;;;;;;;37.04;nan;100133.22;5114554;28;20057;-49
2023/07/02 04:21:31;;;;;;;6.55;3.38;;;;;;;38.68;nan;100122.41;5112426;28;20063;-49
2023/07/02 04:23:58;;;;;;;6.32;3.45;;;;;;;37.16;nan;100113.75;5109194;28;20349;-49
2023/07/02 04:26:26;;;;;;;8.50;3.92;;;;;;;37.77;nan;100124.47;5101978;28;20060;-49
2023/07/02 04:29:13;;;;;;;4.25;3.58;;;;;;;38.17;nan;100118.38;5099975;28;20098;-49
2023/07/02 04:31:39;;;;;;;7.30;3.55;;;;;;;36.85;nan;100125.31;5116104;28;20067;-49
2023/07/02 04:34:06;;;;;;;8.00;3.50;;;;;;;35.24;nan;100128.81;5111999;28;20452;-49
2023/07/02 04:36:32;;;;;;;6.07;3.38;;;;;;;36.01;nan;100131.94;5111425;28;20096;-49
2023/07/02 04:38:59;;;;;;;6.72;3.72;;;;;;;40.03;nan;100135.19;5115598;28;20052;-49
2023/07/02 04:41:27;;;;;;;6.22;4.03;;;;;;;38.83;nan;100146.50;5106161;28;20415;-49
2023/07/02 04:43:53;;;;;;;5.88;4.03;;;;;;;37.33;nan;100152.22;5117321;28;20386;-49
2023/07/02 04:46:20;;;;;;;6.25;3.30;;;;;;;38.77;nan;100142.88;5104047;28;20121;-49
2023/07/02 04:48:46;;;;;;;5.75;3.00;;;;;;;35.87;nan;100136.13;5110323;28;20121;-49
2023/07/02 04:51:14;;;;;;;3.88;3.42;;;;;;;37.31;nan;100144.22;5105005;28;20047;-49
2023/07/02 04:53:40;;;;;;;6.32;2.90;;;;;;;38.08;nan;100147.53;5095563;28;20047;-49
2023/07/02 04:56:07;;;;;;;11.70;3.85;;;;;;;36.47;nan;100145.50;5112320;28;20589;-49
2023/07/02 04:58:34;;;;;;;12.80;3.45;;;;;;;38.44;nan;100167.06;5100615;27;20515;-49
2023/07/02 05:01:01;;;;;;;6.22;3.45;;;;;;;36.77;nan;100172.59;5116065;28;20051;-49
2023/07/02 05:03:27;;;;;;;4.28;2.72;;;;;;;37.34;nan;100176.78;5109858;28;20100;-49
2023/07/02 05:05:54;;;;;;;7.10;3.50;;;;;;;37.97;nan;100174.22;5114479;28;20074;-49
2023/07/02 05:08:21;;;;;;;5.60;3.10;;;;;;;35.91;nan;100162.06;5109537;28;20052;-49
2023/07/02 05:10:47;;;;;;;9.38;2.90;;;;;;;37.74;nan;100169.94;5113813;28;20070;-49
2023/07/02 05:13:14;;;;;;;5.00;3.30;;;;;;;34.62;nan;100169.88;5116549;28;20669;-48
2023/07/02 05:15:41;;;;;;;7.68;2.70;;;;;;;35.90;nan;100158.50;5099641;28;20051;-49
2023/07/02 05:18:07;;;;;;;3.60;2.92;;;;;;;37.54;nan;100178.84;5099198;28;20051;-49
2023/07/02 05:20:34;;;;;;;6.38;2.90;;;;;;;39.17;nan;100174.47;5099739;28;20068;-49
2023/07/02 05:23:01;;;;;;;7.32;3.10;;;;;;;38.12;nan;100167.97;5105750;28;20753;-49
2023/07/02 05:25:27;;;;;;;7.07;3.03;;;;;;;37.37;nan;100176.25;5112273;28;20054;-49
2023/07/02 05:27:54;;;;;;;8.50;3.53;;;;;;;37.33;nan;100169.59;5111716;28;20055;-49
2023/07/02 05:30:20;;;;;;;7.13;2.63;;;;;;;38.29;nan;100175.28;5114310;28;20562;-49
2023/07/02 05:32:47;;;;;;;6.72;3.38;;;;;;;36.96;nan;100186.81;5103343;28;20572;-49
2023/07/02 05:35:14;;;;;;;6.28;2.70;;;;;;;39.14;nan;100183.31;5105980;28;20048;-48
2023/07/02 05:37:40;;;;;;;6.38;3.03;;;;;;;36.52;nan;100186.81;5113808;28;20050;-48
2023/07/02 05:40:07;;;;;;;4.45;2.50;;;;;;;35.84;nan;100178.72;5114419;28;20120;-49
2023/07/02 05:42:35;;;;;;;5.50;3.17;;;;;;;33.41;nan;100180.25;5112406;28;20056;-49
2023/07/02 05:45:01;;;;;;;4.35;2.60;;;;;;;36.11;nan;100186.25;5101621;28;20127;-49
2023/07/02 05:47:28;;;;;;;13.57;2.65;;;;;;;37.13;nan;100180.38;5114374;28;20061;-48
2023/07/02 05:49:56;;;;;;;9.73;4.18;;;;;;;35.24;nan;100186.50;5110691;28;20043;-49
2023/07/02 05:52:22;;;;;;;6.05;2.70;;;;;;;36.41;nan;100185.03;5121376;28;20495;-50
2023/07/02 05:54:49;;;;;;;6.50;3.47;;;;;;;36.92;nan;100183.75;5108571;27;20048;-49
2023/07/02 05:57:15;;;;;;;5.13;2.90;;;;;;;36.70;nan;100183.78;5114402;28;20051;-48
2023/07/02 05:59:42;;;;;;;11.88;3.00;;;;;;;35.82;nan;100195.47;5114060;28;20044;-49
2023/07/02 06:02:09;;;;;;;5.40;2.95;;;;;;;34.92;nan;100197.97;5101914;28;20039;-49
2023/07/02 06:04:35;;;;;;;5.07;2.05;;;;;;;37.48;nan;100196.44;5113811;28;20104;-48
2023/07/02 06:07:02;;;;;;;7.53;2.80;;;;;;;37.52;nan;100178.31;5111246;27;20401;-48
2023/07/02 06:09:29;;;;;;;5.13;2.47;;;;;;;39.36;nan;100194.09;5116121;28;20031;-48
2023/07/02 06:11:55;;;;;;;3.55;2.05;;;;;;;37.37;nan;100192.78;5111245;28;20051;-48
2023/07/02 06:14:23;;;;;;;9.20;2.83;;;;;;;39.01;nan;100192.94;5110480;28;20081;-49
2023/07/02 06:16:49;;;;;;;4.32;3.22;;;;;;;36.13;nan;100195.09;5113291;28;20705;-49
2023/07/02 06:19:16;;;;;;;8.57;2.60;;;;;;;35.68;nan;100196.84;5108945;28;20050;-48
2023/07/02 06:21:43;;;;;;;8.07;2.28;;;;;;;36.62;nan;100195.22;5113197;28;20044;-48
2023/07/02 06:24:09;;;;;;;10.02;2.90;;;;;;;35.06;nan;100189.44;5104645;28;20052;-48
2023/07/02 06:26:36;;;;;;;4.68;3.17;;;;;;;37.99;nan;100176.72;5106460;28;20048;-49
2023/07/02 06:29:02;;;;;;;8.57;2.55;;;;;;;37.99;nan;100193.25;5092652;28;20051;-49
2023/07/02 06:31:29;;;;;;;5.70;2.20;;;;;;;38.16;nan;100205.00;5103937;28;20055;-49
2023/07/02 06:33:56;;;;;;;8.80;3.10;;;;;;;38.96;nan;100194.84;5109375;28;20063;-49
2023/07/02 06:36:22;;;;;;;7.82;2.67;;;;;;;37.99;nan;100193.25;5099974;28;20509;-49
2023/07/02 06:38:49;;;;;;;4.25;2.33;;;;;;;37.24;nan;100183.03;5095150;28;20055;-49
2023/07/02 06:41:16;;;;;;;8.43;2.30;;;;;;;38.85;nan;100189.28;5104973;28;20108;-49
2023/07/02 06:43:43;;;;;;;12.13;2.95;;;;;;;38.18;nan;100186.25;5105438;28;20109;-49
2023/07/02 06:46:11;;;;;;;12.60;2.78;;;;;;;35.67;nan;100189.69;5110353;28;20047;-49
2023/07/02 06:48:38;;;;;;;6.82;2.60;;;;;;;37.09;nan;100191.09;5109928;28;20412;-49
2023/07/02 06:51:05;;;;;;;5.78;2.65;;;;;;;38.71;nan;100199.19;5111320;28;20059;-49
2023/07/02 06:53:31;;;;;;;9.70;2.58;;;;;;;39.62;nan;100203.25;5108900;28;20695;-49
2023/07/02 06:55:58;;;;;;;4.82;2.60;;;;;;;36.86;nan;100198.56;5111924;28;20428;-49
2023/07/02 06:58:25;;;;;;;4.03;2.70;;;;;;;38.82;nan;100197.31;5109537;28;20112;-49
2023/07/02 07:00:51;;;;;;;4.85;2.45;;;;;;;37.91;nan;100207.53;5102506;28;20050;-49
2023/07/02 07:03:18;;;;;;;3.33;2.13;;;;;;;35.96;nan;100206.13;5112393;28;20051;-49
2023/07/02 07:05:44;;;;;;;5.43;2.97;;;;;;;36.25;nan;100195.84;5107510;28;20044;-49
2023/07/02 07:08:11;;;;;;;7.78;2.90;;;;;;;35.95;nan;100201.69;5112400;28;20068;-49
2023/07/02 07:10:38;;;;;;;7.60;2.17;;;;;;;35.93;nan;100190.97;5101134;28;20051;-49
2023/07/02 07:13:04;;;;;;;9.77;3.35;;;;;;;37.77;nan;100190.66;5105897;28;20124;-49
2023/07/02 07:15:33;;;;;;;6.60;2.65;;;;;;;34.58;nan;100198.91;5107809;28;20419;-49
2023/07/02 07:18:01;;;;;;;4.60;2.60;;;;;;;38.16;nan;100199.47;5101560;28;20080;-49
2023/07/02 07:20:28;;;;;;;7.30;2.47;;;;;;;38.79;nan;100218.00;5104517;28;20387;-49
2023/07/02 07:22:55;;;;;;;5.43;2.60;;;;;;;37.55;nan;100193.47;5112195;28;20044;-49
2023/07/02 07:25:21;;;;;;;9.52;2.60;;;;;;;38.26;nan;100215.25;5106800;28;20040;-49
2023/07/02 07:27:48;;;;;;;7.03;2.50;;;;;;;35.26;nan;100211.81;5109496;28;20136;-49
2023/07/02 07:30:15;;;;;;;6.63;2.45;;;;;;;38.20;nan;100219.06;5104679;28;20042;-49
2023/07/02 07:32:41;;;;;;;4.40;2.50;;;;;;;37.76;nan;100220.13;5110289;28;20063;-49
2023/07/02 07:35:08;;;;;;;7.88;2.90;;;;;;;37.51;nan;100222.66;5111426;28;20474;-49
2023/07/02 07:37:35;;;;;;;3.42;2.33;;;;;;;35.85;nan;100221.59;5109720;28;20051;-49
2023/07/02 07:40:02;;;;;;;5.22;2.60;;;;;;;35.92;nan;100227.78;5112030;28;20058;-48
2023/07/02 07:42:28;;;;;;;6.82;2.35;;;;;;;37.40;nan;100218.97;5108356;28;20047;-49
2023/07/02 07:44:55;;;;;;;8.27;2.55;;;;;;;36.15;nan;100226.75;5111448;28;20052;-49
2023/07/02 07:47:21;;;;;;;3.90;2.47;;;;;;;34.01;nan;100236.81;5109737;28;20047;-49
2023/07/02 07:49:48;;;;;;;3.40;2.40;;;;;;;36.25;nan;100226.09;5111361;28;20074;-49
2023/07/02 07:52:15;;;;;;;8.25;3.15;;;;;;;36.32;nan;100232.25;5112080;28;20047;-49
2023/07/02 07:54:41;;;;;;;6.03;2.63;;;;;;;36.83;nan;100225.78;5107201;28;20051;-49
2023/07/02 07:57:08;;;;;;;5.22;2.75;;;;;;;36.90;nan;100237.44;5111613;28;20056;-49
2023/07/02 07:59:34;;;;;;;7.65;2.72;;;;;;;38.89;nan;100245.66;5108564;28;20047;-49
2023/07/02 08:02:01;;;;;;;4.20;2.90;;;;;;;37.00;nan;100237.53;5111391;28;20383;-48
2023/07/02 08:04:28;;;;;;;6.97;2.90;;;;;;;37.78;nan;100252.94;5109076;28;20453;-49
2023/07/02 08:06:55;;;;;;;5.10;3.17;;;;;;;35.77;nan;100257.75;5110004;28;20048;-49
2023/07/02 08:09:21;;;;;;;6.95;3.40;;;;;;;36.51;nan;100253.97;5111306;28;20782;-49
2023/07/02 08:11:48;;;;;;;5.50;3.25;;;;;;;36.88;nan;100256.13;5110302;28;20055;-48
2023/07/02 08:14:16;;;;;;;6.32;3.47;;;;;;;37.62;nan;100271.28;5111604;28;20054;-49
2023/07/02 08:16:44;;;;;;;7.47;3.40;;;;;;;37.73;nan;100281.31;5115320;27;20059;-49
2023/07/02 08:19:10;;;;;;;9.15;3.85;;;;;;;36.10;nan;100283.63;5110092;28;20055;-49
2023/07/02 08:21:37;;;;;;;10.30;3.70;;;;;;;35.47;nan;100270.72;5111280;28;20058;-49
2023/07/02 08:24:04;;;;;;;11.05;3.70;;;;;;;35.71;nan;100253.25;5107960;28;20054;-49
2023/07/02 08:26:31;;;;;;;11.57;3.90;;;;;;;37.16;nan;100237.69;5113951;28;20051;-48
2023/07/02 08:28:57;;;;;;;10.10;4.22;;;;;;;34.62;nan;100239.31;5108000;28;20048;-49
2023/07/02 08:31:24;;;;;;;9.07;3.83;;;;;;;37.40;nan;100247.34;5111432;28;20469;-49
2023/07/02 08:33:50;;;;;;;8.82;4.40;;;;;;;35.37;nan;100250.47;5109382;28;20059;-48
2023/07/02 08:36:17;;;;;;;10.25;4.03;;;;;;;37.46;nan;100249.06;5110765;28;20050;-49
2023/07/02 08:38:44;;;;;;;13.70;5.15;;;;;;;37.75;nan;100246.06;5118055;28;20047;-49
2023/07/02 08:41:10;;;;;;;8.80;3.58;;;;;;;34.53;nan;100244.34;5107701;28;20539;-50
2023/07/02 08:43:37;;;;;;;9.20;4.85;;;;;;;37.70;nan;100246.00;5115384;28;20047;-49
2023/07/02 08:46:04;;;;;;;12.40;4.68;;;;;;;37.62;nan;100249.22;5111851;28;20421;-50
2023/07/02 08:48:30;;;;;;;12.00;4.55;;;;;;;36.87;nan;100255.28;5114609;28;20116;-51
2023/07/02 08:50:57;;;;;;;9.43;4.00;;;;;;;36.59;nan;100256.28;5104542;28;20052;-49
2023/07/02 08:53:29;;;;;;;9.30;4.75;;;;;;;34.53;nan;100255.31;5115026;28;20059;-50
2023/07/02 08:55:56;;;;;;;12.57;4.65;;;;;;;35.24;nan;100265.31;5110442;28;20051;-49
2023/07/02 08:58:22;;;;;;;8.65;4.47;;;;;;;34.90;nan;100260.53;5104179;27;20059;-49
2023/07/02 09:01:13;;;;;;;7.53;3.17;;;;;;;37.13;nan;100257.50;5109647;28;20043;-50
2023/07/02 09:03:41;;;;;;;10.35;3.88;;;;;;;37.04;nan;100263.47;5106363;28;20053;-49
2023/07/02 09:06:09;;;;;;;9.35;4.13;;;;;;;38.36;nan;100269.66;5121026;27;20055;-50
2023/07/02 09:08:37;;;;;;;14.98;4.47;;;;;;;34.87;nan;100274.72;5111717;27;20050;-49
2023/07/02 09:11:15;;;;;;;10.43;4.78;;;;;;;36.39;nan;100276.13;5111397;28;20048;-49
2023/07/02 09:13:43;;;;;;;9.70;3.80;;;;;;;38.46;nan;100275.25;5103841;28;20063;-50
2023/07/02 09:16:36;;;;;;;6.13;3.70;;;;;;;36.72;nan;100275.22;5098490;28;20055;-49
2023/07/02 09:19:07;;;;;;;7.65;4.28;;;;;;;37.94;nan;100278.72;5109330;28;20051;-49
2023/07/02 09:21:40;;;;;;;8.57;3.88;;;;;;;37.26;nan;100280.00;5109170;28;20062;-49
2023/07/02 09:24:20;;;;;;;8.50;4.50;;;;;;;35.85;nan;100287.59;5113038;28;20058;-49
2023/07/02 09:26:49;;;;;;;6.65;3.97;;;;;;;37.00;nan;100283.53;5107327;28;20051;-49
2023/07/02 09:29:25;;;;;;;9.70;5.03;;;;;;;36.35;nan;100295.00;5111105;28;20123;-49
2023/07/02 09:31:52;;;;;;;10.38;3.90;;;;;;;36.37;nan;100294.75;5096013;28;20055;-48
2023/07/02 09:34:36;;;;;;;8.40;4.05;;;;;;;38.88;nan;100281.84;5112054;28;20059;-49
2023/07/02 09:37:04;;;;;;;8.05;4.38;;;;;;;35.03;nan;100275.84;5112462;28;20051;-49
2023/07/02 09:39:33;;;;;;;8.35;4.28;;;;;;;37.74;nan;100280.22;5112649;28;20467;-49
2023/07/02 09:42:01;;;;;;;10.23;4.00;;;;;;;37.92;nan;100280.91;5113860;28;20113;-49
2023/07/02 09:44:30;;;;;;;8.18;4.15;;;;;;;39.32;nan;100275.06;5105894;28;20082;-49
2023/07/02 09:47:07;;;;;;;8.10;4.25;;;;;;;37.81;nan;100280.84;5113817;28;20048;-49
2023/07/02 09:49:39;;;;;;;8.50;4.13;;;;;;;38.94;nan;100275.22;5107298;28;20047;-49
2023/07/02 09:52:08;;;;;;;8.93;5.28;;;;;;;37.60;nan;100284.47;5103707;28;20051;-49
2023/07/02 09:54:35;;;;;;;11.55;4.38;;;;;;;39.02;nan;100271.09;5094436;28;20368;-49
2023/07/02 09:57:02;;;;;;;9.00;4.28;;;;;;;36.73;nan;100267.78;5112152;27;20052;-48
2023/07/02 09:59:30;;;;;;;12.30;4.60;;;;;;;37.33;nan;100268.78;5113315;28;20066;-49
2023/07/02 10:01:57;;;;;;;11.23;4.55;;;;;;;38.38;nan;100267.47;5109746;28;20048;-49
2023/07/02 10:04:24;;;;;;;9.88;4.63;;;;;;;40.88;nan;100261.69;5109303;28;20120;-49
2023/07/02 10:06:56;;;;;;;16.27;5.30;;;;;;;39.18;nan;100281.13;5107922;28;20055;-49
2023/07/02 10:09:37;;;;;;;12.85;6.05;;;;;;;37.81;nan;100269.81;5105516;28;20057;-49
2023/07/02 10:12:27;;;;;;;;;;;;;;;37.48;nan;100260.66;5105483;28;20048;-49
2023/07/02 10:14:56;;;;;;;21.30;5.57;;;;;;;37.99;nan;100265.81;5097858;28;19964;-49
2023/07/02 10:17:33;;;;;;;13.20;5.28;;;;;;;37.88;nan;100264.06;5107970;28;20062;-48
2023/07/02 10:20:06;;;;;;;13.32;5.00;;;;;;;36.27;nan;100267.94;5112771;28;20058;-48
2023/07/02 10:23:03;;;;;;;17.50;6.25;;;;;;;37.43;nan;100251.50;5110296;28;20464;-49
2023/07/02 10:25:36;;;;;;;15.90;5.78;;;;;;;38.91;nan;100260.03;5098986;28;20055;-49
2023/07/02 10:28:26;;;;;;;11.82;5.20;;;;;;;38.31;nan;100270.47;5110824;28;20044;-48
2023/07/02 10:30:53;;;;;;;13.75;5.25;;;;;;;37.62;nan;100272.09;5108124;28;20051;-49
2023/07/02 10:33:20;;;;;;;10.77;5.13;;;;;;;38.69;nan;100251.09;5110975;28;20346;-49
2023/07/02 10:35:49;;;;;;;11.30;5.57;;;;;;;36.87;nan;100271.00;5099505;28;20054;-49
2023/07/02 10:38:26;;;;;;;14.98;5.95;;;;;;;36.15;nan;100278.19;5111614;28;20051;-49
2023/07/02 10:40:56;;;;;;;18.88;6.78;;;;;;;37.26;nan;100244.19;5108175;28;20047;-49
2023/07/02 10:43:31;;;;;;;12.17;5.40;;;;;;;37.78;nan;100248.28;5094714;28;20409;-49
2023/07/02 10:46:02;;;;;;;14.10;5.93;;;;;;;38.26;nan;100253.88;5118686;27;20753;-49
2023/07/02 10:48:30;;;;;;;11.52;5.10;;;;;;;39.28;nan;100267.34;5092384;28;20461;-50
2023/07/02 10:50:57;;;;;;;16.48;5.55;;;;;;;36.82;nan;100273.69;5105730;28;20048;-49
2023/07/02 10:53:24;;;;;;;16.40;6.15;;;;;;;39.31;nan;100273.41;5106968;28;20139;-49
2023/07/02 10:55:55;;;;;;;14.35;6.43;;;;;;;37.14;nan;100267.44;5103294;28;20047;-49
2023/07/02 10:58:23;;;;;;;18.65;6.13;;;;;;;41.10;nan;100275.16;5100719;28;20112;-49
2023/07/02 11:00:51;;;;;;;21.60;7.07;;;;;;;39.75;nan;100267.41;5103998;28;20119;-49
2023/07/02 11:03:19;;;;;;;14.50;5.28;;;;;;;40.28;nan;100281.78;5098484;28;20063;-49
2023/07/02 11:05:47;;;;;;;13.80;6.15;;;;;;;38.71;nan;100262.69;5101281;28;20101;-49
2023/07/02 11:08:14;;;;;;;17.75;5.43;;;;;;;39.78;nan;100267.69;5101212;28;20048;-49
2023/07/02 11:10:41;;;;;;;22.48;6.03;;;;;;;35.86;nan;100278.28;5107639;28;20043;-49
2023/07/02 11:13:15;;;;;;;16.90;5.47;;;;;;;40.63;nan;100271.75;5111012;28;20392;-49
2023/07/02 11:15:43;;;;;;;23.15;5.82;;;;;;;40.74;nan;100281.66;5101017;28;20052;-49
2023/07/02 11:18:15;;;;;;;18.00;8.10;;;;;;;38.85;nan;100272.16;5100582;28;20052;-49
2023/07/02 11:20:43;;;;;;;20.83;6.32;;;;;;;40.88;nan;100289.38;5101290;28;20048;-49
2023/07/02 11:23:24;;;;;;;15.98;5.90;;;;;;;38.74;nan;100287.00;5111533;28;20066;-49
2023/07/02 11:25:57;;;;;;;26.58;6.65;;;;;;;37.77;nan;100285.22;5108302;28;20055;-49
2023/07/02 11:28:24;;;;;;;16.92;6.03;;;;;;;41.44;nan;100280.78;5110866;28;20052;-49
2023/07/02 11:30:51;;;;;;;13.38;5.82;;;;;;;37.59;nan;100271.78;5101635;28;20048;-48
2023/07/02 11:33:18;;;;;;;14.38;6.03;;;;;;;39.78;nan;100289.00;5102604;28;20459;-48
2023/07/02 11:35:44;;;;;;;15.00;6.50;;;;;;;42.26;nan;100292.34;5104683;28;20063;-49
2023/07/02 11:38:12;;;;;;;12.38;5.30;;;;;;;43.90;nan;100281.03;5098411;28;20052;-49
2023/07/02 11:40:39;;;;;;;15.88;5.63;;;;;;;37.15;nan;100278.19;5105138;28;20051;-48
2023/07/02 11:43:05;;;;;;;14.50;5.43;;;;;;;36.85;nan;100295.19;5108769;28;20056;-49